Time;durP1;ratioP1;P1;durP2;ratioP2;P2;SDS_P1;SDS_P2;PMS_P1;PMS_P2;Temp;Humidity;BMP_temperature;BMP_pressure;BME280_temperature;BME280_humidity;BME280_pressure;Samples;Min_cycle;Max_cycle;Signal;HPM_P1;HPM_P2
2023/03/04 00:02:11;;;;;;;19.73;13.10;;;25.80;99.90;;;;;;5055674;28;20466;-74
2023/03/04 00:04:38;;;;;;;21.67;11.60;;;25.80;99.90;;;;;;5055632;28;20033;-73
2023/03/04 00:07:04;;;;;;;25.75;12.90;;;25.80;99.90;;;;;;5055513;28;20028;-73
2023/03/04 00:09:31;;;;;;;22.58;12.77;;;25.80;99.90;;;;;;5055664;28;20099;-72
2023/03/04 00:11:57;;;;;;;25.98;16.08;;;25.80;99.90;;;;;;5055539;28;20027;-73
2023/03/04 00:14:24;;;;;;;25.27;14.57;;;25.80;99.90;;;;;;5055334;28;20060;-73
2023/03/04 00:16:50;;;;;;;36.50;16.27;;;25.70;99.90;;;;;;5055386;28;20029;-73
2023/03/04 00:19:17;;;;;;;24.80;13.15;;;25.80;99.90;;;;;;5055445;28;20025;-72
2023/03/04 00:21:43;;;;;;;20.17;11.40;;;25.80;99.90;;;;;;5055123;28;20508;-72
2023/03/04 00:24:10;;;;;;;19.23;10.40;;;25.80;99.90;;;;;;5055246;28;20017;-75
2023/03/04 00:26:36;;;;;;;20.83;11.23;;;25.80;99.90;;;;;;5055299;28;20036;-73
2023/03/04 00:29:03;;;;;;;19.60;10.10;;;25.80;99.90;;;;;;5055136;28;20429;-72
2023/03/04 00:31:29;;;;;;;26.42;10.50;;;25.80;99.90;;;;;;5055195;28;20036;-73
2023/03/04 00:33:56;;;;;;;13.93;9.63;;;25.80;99.90;;;;;;5055254;28;20482;-72
2023/03/04 00:36:23;;;;;;;22.17;12.07;;;25.80;99.90;;;;;;5055096;28;20035;-71
2023/03/04 00:38:50;;;;;;;20.38;11.90;;;25.80;99.90;;;;;;5054987;28;20037;-73
2023/03/04 00:41:16;;;;;;;16.05;10.85;;;25.80;99.90;;;;;;5055070;28;20029;-76
2023/03/04 00:43:43;;;;;;;19.70;11.52;;;25.80;99.90;;;;;;5055057;28;20033;-72
2023/03/04 00:46:09;;;;;;;20.77;13.27;;;25.80;99.90;;;;;;5053769;28;20470;-74
2023/03/04 00:48:37;;;;;;;25.42;14.02;;;25.80;99.90;;;;;;5054925;28;20021;-74
2023/03/04 00:51:04;;;;;;;24.85;13.40;;;25.80;99.90;;;;;;5054828;28;20033;-74
2023/03/04 00:53:31;;;;;;;41.15;29.45;;;25.80;99.90;;;;;;5054739;28;20036;-74
2023/03/04 00:55:57;;;;;;;158.45;101.15;;;25.90;99.90;;;;;;5054754;28;20033;-75
2023/03/04 00:58:24;;;;;;;35.55;20.30;;;26.00;99.90;;;;;;5054904;28;20124;-74
2023/03/04 01:00:50;;;;;;;30.50;19.10;;;26.00;99.90;;;;;;5054454;28;20028;-73
2023/03/04 01:03:17;;;;;;;33.40;19.00;;;26.00;99.90;;;;;;5054452;28;20025;-73
2023/03/04 01:05:43;;;;;;;26.33;13.90;;;26.10;99.90;;;;;;5054698;28;20033;-73
2023/03/04 01:08:10;;;;;;;24.27;14.10;;;26.00;99.90;;;;;;5054389;28;20029;-74
2023/03/04 01:10:36;;;;;;;25.08;12.95;;;26.10;99.90;;;;;;5054985;28;20025;-73
2023/03/04 01:13:03;;;;;;;19.20;12.70;;;26.10;99.90;;;;;;5054924;28;20028;-73
2023/03/04 01:15:29;;;;;;;21.48;13.57;;;26.10;99.90;;;;;;5054588;28;20052;-71
2023/03/04 01:17:56;;;;;;;26.83;15.77;;;26.20;99.90;;;;;;5054600;28;20025;-73
2023/03/04 01:20:23;;;;;;;33.75;16.90;;;26.30;99.90;;;;;;5054610;28;20497;-73
2023/03/04 01:22:50;;;;;;;21.60;12.93;;;26.30;99.90;;;;;;5053949;28;20120;-72
2023/03/04 01:25:16;;;;;;;23.88;17.15;;;26.30;99.90;;;;;;5054319;28;20055;-72
2023/03/04 01:27:43;;;;;;;20.13;13.63;;;26.30;99.90;;;;;;5054359;28;20027;-72
2023/03/04 01:30:10;;;;;;;27.80;15.23;;;26.30;99.90;;;;;;5054181;28;20021;-72
2023/03/04 01:32:37;;;;;;;16.08;11.45;;;26.40;99.90;;;;;;5051527;28;20029;-72
2023/03/04 01:35:03;;;;;;;18.13;12.15;;;26.40;99.90;;;;;;5053580;28;20410;-72
2023/03/04 01:37:30;;;;;;;20.00;13.38;;;26.50;99.90;;;;;;5063032;28;20025;-72
2023/03/04 01:39:56;;;;;;;36.83;24.40;;;26.50;99.90;;;;;;5074036;28;20056;-72
2023/03/04 01:42:25;;;;;;;21.30;15.27;;;26.50;99.90;;;;;;5073847;28;20427;-72
2023/03/04 01:44:52;;;;;;;25.85;17.33;;;26.60;99.90;;;;;;5061999;28;20103;-71
2023/03/04 01:47:21;;;;;;;20.15;13.32;;;26.50;99.90;;;;;;5073939;28;20023;-72
2023/03/04 01:49:53;;;;;;;26.08;12.73;;;26.50;99.90;;;;;;5073768;28;20082;-72
2023/03/04 01:52:19;;;;;;;23.13;13.52;;;26.60;99.90;;;;;;5072354;28;20028;-73
2023/03/04 01:54:47;;;;;;;21.85;14.55;;;26.60;99.90;;;;;;5053721;28;20111;-73
2023/03/04 01:57:18;;;;;;;35.55;20.52;;;26.70;99.90;;;;;;5053502;28;20029;-73
2023/03/04 01:59:45;;;;;;;21.33;12.18;;;26.70;99.90;;;;;;5053735;28;20029;-72
2023/03/04 02:02:13;;;;;;;23.35;14.27;;;26.70;99.90;;;;;;5053655;28;20390;-72
2023/03/04 02:04:41;;;;;;;23.00;12.80;;;26.80;99.90;;;;;;5053614;28;20465;-72
2023/03/04 02:07:08;;;;;;;17.90;11.93;;;26.80;99.90;;;;;;5053415;28;20024;-72
2023/03/04 02:09:35;;;;;;;20.45;12.57;;;26.80;99.90;;;;;;5053774;28;20028;-71
2023/03/04 02:12:01;;;;;;;23.73;13.63;;;26.80;99.90;;;;;;5053540;28;20094;-71
2023/03/04 02:14:28;;;;;;;23.63;14.85;;;26.90;99.90;;;;;;5053276;28;20021;-70
2023/03/04 02:16:55;;;;;;;21.75;12.15;;;27.00;99.90;;;;;;5053418;28;20017;-71
2023/03/04 02:19:37;;;;;;;31.73;20.85;;;27.00;99.90;;;;;;5053487;28;20025;-72
2023/03/04 02:22:04;;;;;;;70.68;47.53;;;27.00;99.90;;;;;;5053474;28;22027;-72
2023/03/04 02:24:40;;;;;;;292.42;168.93;;;27.00;99.90;;;;;;5053446;28;20066;-71
2023/03/04 02:27:07;;;;;;;288.38;151.75;;;27.10;99.90;;;;;;5053049;28;20155;-72
2023/03/04 02:29:33;;;;;;;31.70;20.70;;;27.10;99.90;;;;;;5052760;28;20151;-70
2023/03/04 02:32:00;;;;;;;195.40;98.00;;;27.20;99.90;;;;;;5051328;28;20016;-71
2023/03/04 02:34:32;;;;;;;37.00;21.25;;;27.20;99.90;;;;;;5051320;28;20026;-72
2023/03/04 02:36:59;;;;;;;55.20;33.28;;;27.20;99.90;;;;;;5051624;28;20028;-70
2023/03/04 02:39:33;;;;;;;27.95;16.35;;;27.20;99.90;;;;;;5051895;28;20021;-70
2023/03/04 02:42:01;;;;;;;26.55;16.70;;;27.20;99.90;;;;;;5052424;28;20025;-72
2023/03/04 02:44:35;;;;;;;42.88;21.90;;;27.30;99.90;;;;;;5052686;28;20470;-71
2023/03/04 02:47:04;;;;;;;71.50;37.53;;;27.30;99.90;;;;;;5057772;28;20064;-74
2023/03/04 02:49:32;;;;;;;48.60;28.58;;;27.40;99.90;;;;;;5067793;28;20123;-71
2023/03/04 02:52:09;;;;;;;35.55;22.15;;;27.40;99.90;;;;;;5073011;28;20027;-71
2023/03/04 02:54:37;;;;;;;26.77;14.88;;;27.50;99.90;;;;;;5073086;28;20103;-71
2023/03/04 02:57:07;;;;;;;56.95;30.73;;;27.60;99.90;;;;;;5073014;28;20100;-71
2023/03/04 02:59:35;;;;;;;40.33;19.65;;;27.60;99.90;;;;;;5072999;28;20052;-72
2023/03/04 03:02:02;;;;;;;27.75;16.00;;;27.70;99.90;;;;;;5072905;28;20025;-72
2023/03/04 03:04:29;;;;;;;28.10;15.80;;;27.70;99.90;;;;;;5073067;28;20063;-72
2023/03/04 03:06:55;;;;;;;22.98;12.65;;;27.80;99.90;;;;;;5072820;28;20020;-73
2023/03/04 03:09:22;;;;;;;31.77;16.27;;;27.80;99.90;;;;;;5074232;28;20044;-72
2023/03/04 03:11:48;;;;;;;34.72;17.15;;;28.00;99.90;;;;;;5056696;28;20421;-73
2023/03/04 03:14:15;;;;;;;25.40;14.68;;;28.00;99.90;;;;;;5039888;28;20507;-72
2023/03/04 03:16:42;;;;;;;49.47;25.35;;;28.00;99.90;;;;;;5036609;28;20116;-74
2023/03/04 03:19:08;;;;;;;31.58;17.25;;;28.00;99.90;;;;;;5036620;28;20025;-71
2023/03/04 03:21:35;;;;;;;33.85;18.45;;;28.10;99.90;;;;;;5037121;28;20474;-70
2023/03/04 03:24:01;;;;;;;36.05;20.40;;;28.20;99.90;;;;;;5045860;28;20048;-70
2023/03/04 03:26:28;;;;;;;29.80;15.30;;;28.30;99.90;;;;;;5051288;28;20048;-71
2023/03/04 03:28:54;;;;;;;26.27;15.25;;;28.30;99.90;;;;;;5056450;28;20025;-70
2023/03/04 03:31:21;;;;;;;19.95;12.60;;;28.30;99.90;;;;;;5056228;28;20017;-72
2023/03/04 03:33:48;;;;;;;41.80;24.35;;;28.30;99.90;;;;;;5056351;28;20495;-71
2023/03/04 03:36:14;;;;;;;28.10;17.63;;;28.30;99.90;;;;;;5056204;28;20032;-70
2023/03/04 03:38:41;;;;;;;31.85;15.70;;;28.40;99.90;;;;;;5055937;28;20024;-71
2023/03/04 03:41:07;;;;;;;25.55;15.63;;;28.50;99.90;;;;;;5056130;28;20033;-70
2023/03/04 03:43:34;;;;;;;22.45;13.27;;;28.60;99.90;;;;;;5055547;28;20425;-71
2023/03/04 03:46:00;;;;;;;20.65;11.35;;;28.60;99.90;;;;;;5046245;28;20021;-72
2023/03/04 03:48:27;;;;;;;16.35;9.82;;;28.70;99.90;;;;;;5045287;28;20029;-73
2023/03/04 03:50:53;;;;;;;25.52;12.55;;;28.70;99.90;;;;;;5045052;28;20034;-72
2023/03/04 03:53:20;;;;;;;18.83;12.57;;;28.60;99.90;;;;;;5049528;28;20047;-71
2023/03/04 03:55:46;;;;;;;16.95;10.15;;;28.70;99.90;;;;;;5047238;28;20029;-71
2023/03/04 03:58:13;;;;;;;15.15;9.25;;;28.70;99.90;;;;;;5046835;28;20112;-71
2023/03/04 04:00:39;;;;;;;15.93;9.57;;;28.70;99.90;;;;;;5045866;28;20025;-72
2023/03/04 04:03:06;;;;;;;15.48;9.63;;;28.80;99.90;;;;;;5043861;28;20025;-73
2023/03/04 04:05:33;;;;;;;17.52;9.38;;;28.90;99.90;;;;;;5042240;28;20052;-71
2023/03/04 04:07:59;;;;;;;22.90;9.88;;;28.90;99.90;;;;;;5041135;28;20467;-71
2023/03/04 04:10:26;;;;;;;16.02;8.23;;;28.90;99.90;;;;;;5041952;28;20017;-71
2023/03/04 04:12:52;;;;;;;20.35;10.43;;;29.00;99.90;;;;;;5041910;28;20079;-74
2023/03/04 04:15:19;;;;;;;27.00;10.60;;;29.00;99.90;;;;;;5041557;28;20071;-71
2023/03/04 04:17:45;;;;;;;18.52;10.27;;;29.00;99.90;;;;;;5044825;28;20021;-72
2023/03/04 04:20:15;;;;;;;16.02;10.30;;;29.00;99.90;;;;;;5044077;28;20494;-66
2023/03/04 04:22:41;;;;;;;30.50;21.70;;;29.00;99.90;;;;;;5043237;28;20037;-65
2023/03/04 04:25:09;;;;;;;17.98;10.25;;;29.00;99.90;;;;;;5054924;28;20025;-65
2023/03/04 04:27:36;;;;;;;21.05;11.02;;;29.10;99.90;;;;;;5043375;28;20074;-66
2023/03/04 04:30:03;;;;;;;19.55;10.57;;;29.10;99.90;;;;;;5044591;28;20075;-68
2023/03/04 04:32:30;;;;;;;21.70;12.40;;;29.20;99.90;;;;;;5043537;28;20375;-68
2023/03/04 04:34:56;;;;;;;19.67;11.80;;;29.20;99.90;;;;;;5043190;28;20021;-67
2023/03/04 04:37:23;;;;;;;20.50;11.20;;;29.20;99.90;;;;;;5044799;28;20370;-69
2023/03/04 04:39:50;;;;;;;17.48;11.52;;;29.30;99.90;;;;;;5042913;28;20602;-69
2023/03/04 04:42:17;;;;;;;18.23;11.52;;;29.20;99.90;;;;;;5050876;28;20033;-69
2023/03/04 04:44:43;;;;;;;18.35;10.65;;;29.20;99.90;;;;;;5042365;28;20509;-69
2023/03/04 04:47:10;;;;;;;16.42;10.20;;;29.20;99.90;;;;;;5044003;28;20023;-69
2023/03/04 04:49:36;;;;;;;17.05;10.23;;;29.20;99.90;;;;;;5043621;28;20249;-68
2023/03/04 04:52:03;;;;;;;18.65;11.68;;;29.20;99.90;;;;;;5042166;28;20056;-71
2023/03/04 04:54:30;;;;;;;18.40;10.95;;;29.30;99.90;;;;;;5043327;28;20108;-70
2023/03/04 04:56:56;;;;;;;18.77;12.40;;;29.20;99.90;;;;;;5043631;28;20017;-70
2023/03/04 04:59:23;;;;;;;25.60;13.20;;;29.20;99.90;;;;;;5041995;28;20097;-70
2023/03/04 05:01:49;;;;;;;19.08;12.43;;;29.20;99.90;;;;;;5043769;28;20017;-70
2023/03/04 05:04:16;;;;;;;17.05;10.95;;;29.30;99.90;;;;;;5048989;28;20037;-69
2023/03/04 05:06:43;;;;;;;17.30;12.18;;;29.30;99.90;;;;;;5044422;28;20021;-69
2023/03/04 05:09:09;;;;;;;24.38;13.48;;;29.40;99.90;;;;;;5042816;28;20375;-69
2023/03/04 05:11:36;;;;;;;15.90;11.40;;;29.30;99.90;;;;;;5042498;28;20014;-70
2023/03/04 05:14:02;;;;;;;20.85;10.40;;;29.40;99.90;;;;;;5043968;28;20017;-70
2023/03/04 05:16:29;;;;;;;16.83;11.73;;;29.40;99.90;;;;;;5042269;28;20021;-68
2023/03/04 05:18:56;;;;;;;18.83;10.82;;;29.50;99.90;;;;;;5042569;28;20085;-68
2023/03/04 05:21:22;;;;;;;18.38;11.93;;;29.50;99.90;;;;;;5043953;28;20092;-68
2023/03/04 05:23:49;;;;;;;19.83;13.15;;;29.50;99.90;;;;;;5041902;28;20041;-70
2023/03/04 05:26:17;;;;;;;15.63;11.13;;;29.50;99.90;;;;;;5041439;28;20017;-69
2023/03/04 05:28:44;;;;;;;19.42;11.23;;;29.50;99.90;;;;;;5044493;28;20013;-69
2023/03/04 05:31:11;;;;;;;14.77;9.57;;;29.60;99.90;;;;;;5043700;28;20028;-69
2023/03/04 05:33:38;;;;;;;16.63;9.85;;;29.50;99.90;;;;;;5043816;28;20029;-69
2023/03/04 05:36:06;;;;;;;15.77;9.88;;;29.60;99.90;;;;;;5037110;28;20368;-70
2023/03/04 05:38:32;;;;;;;15.43;10.20;;;29.70;99.90;;;;;;5035678;28;20441;-69
2023/03/04 05:41:04;;;;;;;15.25;9.50;;;29.70;99.90;;;;;;5035818;28;20071;-70
2023/03/04 05:43:31;;;;;;;21.45;10.10;;;29.70;99.90;;;;;;5038702;28;20028;-69
2023/03/04 05:45:58;;;;;;;13.85;8.48;;;29.80;99.90;;;;;;5045302;28;20060;-69
2023/03/04 05:48:24;;;;;;;13.43;8.80;;;29.80;99.90;;;;;;5046343;28;20028;-71
2023/03/04 05:50:55;;;;;;;16.80;9.63;;;29.80;99.90;;;;;;5040600;28;20025;-70
2023/03/04 05:53:22;;;;;;;13.38;9.38;;;29.90;99.90;;;;;;5047502;28;20029;-70
2023/03/04 05:55:49;;;;;;;15.98;10.63;;;29.90;99.90;;;;;;5046475;28;20028;-69
2023/03/04 05:58:16;;;;;;;20.48;10.10;;;30.00;99.90;;;;;;5042016;28;20457;-69
2023/03/04 06:00:42;;;;;;;16.13;9.95;;;30.00;99.90;;;;;;5040836;28;20021;-69
2023/03/04 06:03:21;;;;;;;15.73;9.32;;;30.00;99.90;;;;;;5038619;28;20064;-68
2023/03/04 06:05:48;;;;;;;36.72;27.40;;;29.90;99.90;;;;;;5044564;28;20108;-68
2023/03/04 06:08:14;;;;;;;18.75;12.65;;;30.00;99.90;;;;;;5044729;28;20056;-68
2023/03/04 06:10:44;;;;;;;23.65;15.40;;;30.10;99.90;;;;;;5044195;28;20014;-68
2023/03/04 06:13:11;;;;;;;36.42;25.42;;;30.30;99.90;;;;;;5044143;28;20447;-68
2023/03/04 06:15:39;;;;;;;20.80;14.30;;;30.40;99.90;;;;;;5046666;28;20088;-69
2023/03/04 06:18:06;;;;;;;21.35;10.93;;;30.50;99.90;;;;;;5032620;28;20489;-68
2023/03/04 06:20:33;;;;;;;16.65;11.82;;;30.60;99.90;;;;;;5033454;28;20029;-68
2023/03/04 06:22:59;;;;;;;34.42;27.48;;;30.60;99.90;;;;;;5033822;28;20240;-70
2023/03/04 06:25:26;;;;;;;14.40;10.35;;;30.70;99.90;;;;;;5033314;28;20463;-70
2023/03/04 06:27:52;;;;;;;16.77;10.48;;;30.70;99.90;;;;;;5033337;28;20092;-69
2023/03/04 06:30:19;;;;;;;15.23;11.00;;;30.80;99.90;;;;;;5036219;28;20070;-69
2023/03/04 06:32:46;;;;;;;21.20;11.23;;;30.90;99.90;;;;;;5041693;28;20017;-69
2023/03/04 06:35:15;;;;;;;21.13;14.02;;;30.80;99.90;;;;;;5041827;28;20029;-69
2023/03/04 06:37:42;;;;;;;12.38;8.65;;;30.80;99.90;;;;;;5049347;28;20025;-70
2023/03/04 06:40:09;;;;;;;10.48;7.97;;;30.80;99.90;;;;;;5044943;28;20377;-70
2023/03/04 06:42:39;;;;;;;11.05;7.80;;;30.90;99.90;;;;;;5043216;28;20033;-68
2023/03/04 06:45:07;;;;;;;34.83;24.48;;;31.00;99.90;;;;;;5051309;28;20033;-68
2023/03/04 06:47:33;;;;;;;12.50;9.15;;;31.00;99.90;;;;;;5045827;28;20025;-68
2023/03/04 06:50:01;;;;;;;19.55;10.48;;;30.90;99.90;;;;;;5043019;28;20032;-68
2023/03/04 06:52:28;;;;;;;30.00;21.40;;;30.80;99.90;;;;;;5038861;28;20438;-68
2023/03/04 06:54:54;;;;;;;23.92;16.92;;;30.70;99.90;;;;;;5039020;28;20021;-67
2023/03/04 06:57:21;;;;;;;17.75;13.57;;;30.80;99.90;;;;;;5045030;28;20506;-68
2023/03/04 06:59:47;;;;;;;17.30;10.70;;;30.80;99.90;;;;;;5044996;28;20040;-67
2023/03/04 07:02:14;;;;;;;18.42;10.30;;;30.90;99.90;;;;;;5044519;28;20078;-68
2023/03/04 07:04:40;;;;;;;14.05;9.90;;;31.00;99.90;;;;;;5047493;28;20040;-68
2023/03/04 07:07:07;;;;;;;13.50;8.60;;;31.00;99.90;;;;;;5045210;28;20025;-67
2023/03/04 07:09:34;;;;;;;18.33;11.15;;;31.00;99.90;;;;;;5045782;28;20027;-67
2023/03/04 07:12:00;;;;;;;17.05;9.60;;;31.00;99.90;;;;;;5046970;28;20122;-67
2023/03/04 07:14:27;;;;;;;20.95;13.30;;;31.00;99.90;;;;;;5052497;28;20017;-68
2023/03/04 07:16:53;;;;;;;31.17;24.70;;;30.90;99.90;;;;;;5048335;28;20481;-65
2023/03/04 07:19:20;;;;;;;11.20;9.30;;;30.90;99.90;;;;;;5043771;28;20036;-66
2023/03/04 07:21:46;;;;;;;16.58;9.10;;;30.90;99.90;;;;;;5044942;28;20017;-66
2023/03/04 07:24:13;;;;;;;20.58;15.18;;;30.90;99.90;;;;;;5044965;28;20036;-67
2023/03/04 07:26:40;;;;;;;14.50;10.68;;;30.90;99.90;;;;;;5046896;28;20056;-67
2023/03/04 07:29:06;;;;;;;17.10;9.07;;;31.00;99.90;;;;;;5044792;28;20105;-66
2023/03/04 07:31:35;;;;;;;14.90;10.23;;;31.00;99.90;;;;;;5045640;28;20381;-67
2023/03/04 07:34:07;;;;;;;17.30;10.02;;;30.90;99.90;;;;;;5045851;28;20025;-66
2023/03/04 07:36:35;;;;;;;13.07;8.35;;;31.00;99.90;;;;;;5045500;28;20068;-67
2023/03/04 07:39:02;;;;;;;13.50;8.38;;;31.00;99.90;;;;;;5045650;28;20041;-67
2023/03/04 07:41:29;;;;;;;16.75;11.27;;;31.00;99.90;;;;;;5047389;28;20025;-66
2023/03/04 07:43:57;;;;;;;12.77;8.38;;;31.00;99.90;;;;;;5048509;28;20014;-67
2023/03/04 07:46:24;;;;;;;16.25;10.15;;;30.90;99.90;;;;;;5046570;28;20054;-66
2023/03/04 07:48:51;;;;;;;18.95;12.60;;;30.90;99.90;;;;;;5043218;28;20024;-66
2023/03/04 07:51:22;;;;;;;17.25;10.15;;;30.90;99.90;;;;;;5045130;28;20087;-67
2023/03/04 07:53:52;;;;;;;12.90;10.73;;;30.90;99.90;;;;;;5045256;28;20045;-66
2023/03/04 07:56:22;;;;;;;16.88;10.95;;;31.00;99.90;;;;;;5045242;28;20017;-65
2023/03/04 07:58:49;;;;;;;19.13;13.32;;;31.00;99.90;;;;;;5038264;28;20153;-65
2023/03/04 08:01:18;;;;;;;30.60;19.08;;;31.10;99.90;;;;;;5038585;28;20025;-65
2023/03/04 08:03:45;;;;;;;44.08;29.52;;;31.10;99.90;;;;;;5049829;28;20021;-65
2023/03/04 08:06:14;;;;;;;19.38;14.93;;;31.20;99.90;;;;;;5050223;28;20100;-66
2023/03/04 08:08:41;;;;;;;24.88;11.35;;;31.20;99.90;;;;;;5048508;28;20017;-66
2023/03/04 08:11:11;;;;;;;25.63;10.60;;;31.20;99.90;;;;;;5038926;28;20435;-65
2023/03/04 08:13:38;;;;;;;16.52;10.50;;;31.10;99.90;;;;;;5037834;28;20035;-65
2023/03/04 08:16:05;;;;;;;17.55;10.65;;;31.10;99.90;;;;;;5039846;28;20167;-67
2023/03/04 08:18:32;;;;;;;15.05;9.88;;;31.20;99.90;;;;;;5043246;28;20032;-66
2023/03/04 08:20:59;;;;;;;17.73;10.38;;;31.10;99.90;;;;;;5043856;28;20482;-66
2023/03/04 08:23:26;;;;;;;17.05;9.25;;;31.10;99.90;;;;;;5044880;28;20466;-67
2023/03/04 08:25:52;;;;;;;16.73;11.65;;;31.10;99.90;;;;;;5050689;28;20021;-67
2023/03/04 08:28:19;;;;;;;18.17;11.43;;;31.10;99.90;;;;;;5043521;28;20278;-65
2023/03/04 08:30:53;;;;;;;21.35;11.07;;;31.10;99.90;;;;;;5041964;28;20441;-65
2023/03/04 08:33:19;;;;;;;10.35;7.93;;;31.20;99.90;;;;;;5041387;28;20025;-67
2023/03/04 08:35:46;;;;;;;42.95;28.27;;;31.20;99.90;;;;;;5036299;28;20022;-69
2023/03/04 08:38:12;;;;;;;24.73;12.05;;;31.20;99.90;;;;;;5045326;28;20016;-69
2023/03/04 08:40:39;;;;;;;35.45;21.15;;;31.20;99.90;;;;;;5039976;28;20048;-67
2023/03/04 08:43:05;;;;;;;21.80;11.73;;;31.20;99.90;;;;;;5048056;28;20376;-68
2023/03/04 08:45:32;;;;;;;11.70;7.28;;;31.20;99.90;;;;;;5053945;28;20033;-68
2023/03/04 08:47:58;;;;;;;16.30;7.43;;;31.20;99.90;;;;;;5054150;28;20446;-68
2023/03/04 08:50:26;;;;;;;9.63;6.25;;;31.20;99.90;;;;;;5053789;28;20028;-69
2023/03/04 08:52:53;;;;;;;11.73;7.10;;;31.20;99.90;;;;;;5053967;28;20486;-70
2023/03/04 08:55:19;;;;;;;15.57;7.70;;;31.20;99.90;;;;;;5054078;28;20020;-69
2023/03/04 08:57:46;;;;;;;10.38;7.10;;;31.20;99.90;;;;;;5054322;28;20033;-71
2023/03/04 09:00:13;;;;;;;26.48;9.70;;;31.10;99.90;;;;;;5053990;28;20025;-71
2023/03/04 09:02:39;;;;;;;24.27;11.38;;;31.10;99.90;;;;;;5053894;28;20021;-71
2023/03/04 09:05:07;;;;;;;17.77;9.63;;;31.10;99.90;;;;;;5038435;28;20041;-71
2023/03/04 09:07:34;;;;;;;12.55;7.57;;;31.10;99.90;;;;;;5033452;28;20028;-71
2023/03/04 09:10:00;;;;;;;20.52;10.95;;;31.10;99.90;;;;;;5034063;28;20040;-71
2023/03/04 09:12:27;;;;;;;9.65;6.45;;;31.10;99.90;;;;;;5034225;28;20486;-71
2023/03/04 09:14:53;;;;;;;15.52;8.10;;;31.10;99.90;;;;;;5033610;28;20037;-71
2023/03/04 09:17:20;;;;;;;20.35;11.27;;;31.00;99.90;;;;;;5033958;28;20028;-70
2023/03/04 09:19:46;;;;;;;23.52;9.85;;;31.10;99.90;;;;;;5034053;28;20402;-71
2023/03/04 09:22:13;;;;;;;21.83;10.75;;;31.00;99.90;;;;;;5033354;28;20037;-70
2023/03/04 09:24:40;;;;;;;30.20;16.40;;;31.00;99.90;;;;;;5033830;28;20026;-71
2023/03/04 09:27:06;;;;;;;24.42;13.88;;;30.90;99.90;;;;;;5033159;28;20021;-72
2023/03/04 09:29:33;;;;;;;25.00;13.15;;;30.90;99.90;;;;;;5033789;28;20017;-70
2023/03/04 09:31:59;;;;;;;32.00;17.98;;;30.90;99.90;;;;;;5033926;28;20023;-70
2023/03/04 09:34:26;;;;;;;30.45;16.00;;;30.90;99.90;;;;;;5033418;28;20032;-70
2023/03/04 09:36:52;;;;;;;25.58;14.88;;;30.90;99.90;;;;;;5033754;28;20033;-71
2023/03/04 09:39:21;;;;;;;28.17;16.67;;;30.90;99.90;;;;;;5033105;28;20397;-71
2023/03/04 09:41:56;;;;;;;21.10;13.07;;;30.80;99.90;;;;;;5032308;28;20368;-71
2023/03/04 09:44:31;;;;;;;15.50;10.45;;;30.80;99.90;;;;;;5033571;28;20112;-71
2023/03/04 09:47:01;;;;;;;29.65;17.75;;;30.80;99.90;;;;;;5033325;28;20100;-71
2023/03/04 09:49:29;;;;;;;20.30;13.60;;;30.80;99.90;;;;;;5033578;28;20382;-71
2023/03/04 09:52:24;;;;;;;38.05;21.70;;;30.80;99.90;;;;;;5033523;28;20056;-71
2023/03/04 09:55:25;;;;;;;24.52;13.55;;;30.70;99.90;;;;;;5033507;28;20028;-71
2023/03/04 09:57:59;;;;;;;21.95;12.30;;;30.70;99.90;;;;;;5033511;28;20029;-71
2023/03/04 10:00:46;;;;;;;20.25;10.57;;;30.70;99.90;;;;;;5033423;28;20079;-72
2023/03/04 10:03:21;;;;;;;24.85;12.50;;;30.70;99.90;;;;;;5032822;28;20105;-71
2023/03/04 10:05:55;;;;;;;28.25;12.75;;;30.70;99.90;;;;;;5033176;28;20029;-69
2023/03/04 10:08:37;;;;;;;22.15;14.70;;;30.70;99.90;;;;;;5033259;28;20025;-71
2023/03/04 10:11:28;;;;;;;36.05;18.63;;;30.70;99.90;;;;;;5033128;28;20022;-70
2023/03/04 10:13:55;;;;;;;50.47;24.77;;;30.70;99.90;;;;;;5033006;28;20103;-71
2023/03/04 10:16:28;;;;;;;51.15;23.60;;;30.70;99.90;;;;;;5033014;28;20104;-69
2023/03/04 10:19:02;;;;;;;46.47;23.60;;;30.70;99.90;;;;;;5039860;28;20059;-71
2023/03/04 10:21:35;;;;;;;36.13;19.77;;;30.60;99.90;;;;;;5053078;28;20056;-71
2023/03/04 10:24:12;;;;;;;52.90;23.83;;;30.60;99.90;;;;;;5052751;28;20056;-71
2023/03/04 10:26:41;;;;;;;53.28;25.45;;;30.60;99.90;;;;;;5052910;28;20054;-71
2023/03/04 10:29:15;;;;;;;47.70;24.55;;;30.60;99.90;;;;;;5052891;28;20106;-71
2023/03/04 10:31:42;;;;;;;41.08;22.98;;;30.60;99.90;;;;;;5052945;28;20017;-71
2023/03/04 10:34:12;;;;;;;34.25;16.08;;;30.60;99.90;;;;;;5053009;28;20029;-70
2023/03/04 10:36:40;;;;;;;36.95;19.45;;;30.60;99.90;;;;;;5052900;28;20035;-70
2023/03/04 10:39:16;;;;;;;33.92;20.17;;;30.50;99.90;;;;;;5052899;28;20417;-70
2023/03/04 10:41:55;;;;;;;30.80;16.17;;;30.50;99.90;;;;;;5052768;28;20025;-73
2023/03/04 10:44:23;;;;;;;26.33;14.65;;;30.50;99.90;;;;;;5052830;28;20021;-71
2023/03/04 10:46:52;;;;;;;39.97;20.20;;;30.50;99.90;;;;;;5052667;28;20104;-69
2023/03/04 10:49:19;;;;;;;46.35;23.85;;;30.50;99.90;;;;;;5052800;28;20386;-70
2023/03/04 10:52:05;;;;;;;38.45;20.20;;;30.50;99.90;;;;;;5052860;28;20055;-71
2023/03/04 10:54:42;;;;;;;38.30;18.88;;;30.50;99.90;;;;;;5052758;28;20021;-71
2023/03/04 10:57:29;;;;;;;31.90;17.73;;;30.50;99.90;;;;;;5052707;28;20180;-73
2023/03/04 10:59:57;;;;;;;27.27;16.92;;;30.40;99.90;;;;;;5050460;28;20044;-73
2023/03/04 11:02:27;;;;;;;33.00;20.55;;;30.40;99.90;;;;;;5050630;28;20044;-73
2023/03/04 11:04:56;;;;;;;41.15;20.17;;;30.40;99.90;;;;;;5050448;28;20098;-72
2023/03/04 11:07:25;;;;;;;27.58;18.30;;;30.30;99.90;;;;;;5050599;28;20029;-73
2023/03/04 11:09:52;;;;;;;35.38;21.10;;;30.30;99.90;;;;;;5050534;28;20485;-72
2023/03/04 11:12:31;;;;;;;54.25;32.00;;;30.40;99.90;;;;;;5050361;28;20441;-72
2023/03/04 11:14:58;;;;;;;48.28;29.77;;;30.30;99.90;;;;;;5050622;28;20036;-72
2023/03/04 11:17:38;;;;;;;54.50;31.95;;;30.30;99.90;;;;;;5050318;28;20029;-72
2023/03/04 11:20:10;;;;;;;48.90;31.98;;;30.30;99.90;;;;;;5050538;28;20029;-68
2023/03/04 11:22:38;;;;;;;52.58;31.45;;;30.30;99.90;;;;;;5050061;28;20065;-66
2023/03/04 11:25:11;;;;;;;56.50;32.72;;;30.30;99.90;;;;;;5049992;28;20025;-68
2023/03/04 11:27:46;;;;;;;47.22;30.02;;;30.30;99.90;;;;;;5050362;28;20037;-68
2023/03/04 11:30:22;;;;;;;102.82;72.43;;;30.20;99.90;;;;;;5051186;28;20025;-68
2023/03/04 11:32:52;;;;;;;71.05;45.28;;;30.20;99.90;;;;;;5053997;28;20029;-68
2023/03/04 11:35:42;;;;;;;54.70;36.38;;;30.10;99.90;;;;;;5053734;28;20024;-68
2023/03/04 11:38:32;;;;;;;45.50;28.30;;;29.90;99.90;;;;;;5053812;28;20168;-68
2023/03/04 11:41:05;;;;;;;38.88;24.10;;;29.90;99.90;;;;;;5053803;28;20037;-69
2023/03/04 11:43:35;;;;;;;45.72;25.58;;;29.80;99.90;;;;;;5053807;28;20486;-69
2023/03/04 11:46:32;;;;;;;40.97;24.90;;;29.80;99.90;;;;;;5053414;28;20044;-68
2023/03/04 11:49:17;;;;;;;53.53;26.08;;;29.70;99.90;;;;;;5053379;28;20363;-68
2023/03/04 11:52:01;;;;;;;61.88;27.73;;;29.60;99.90;;;;;;5053666;28;20025;-69
2023/03/04 11:54:29;;;;;;;67.57;30.08;;;29.60;99.90;;;;;;5053293;28;20509;-68
2023/03/04 11:57:05;;;;;;;52.25;26.70;;;29.70;99.90;;;;;;5055302;28;20100;-68
2023/03/04 11:59:43;;;;;;;45.92;25.30;;;29.60;99.90;;;;;;5055115;28;20044;-68
2023/03/04 12:02:12;;;;;;;39.92;22.27;;;29.60;99.90;;;;;;5055459;28;20039;-68
2023/03/04 12:04:43;;;;;;;39.45;20.33;;;29.50;99.90;;;;;;5055758;28;20370;-69
2023/03/04 12:07:14;;;;;;;38.13;18.33;;;29.50;99.90;;;;;;5055442;28;20109;-68
2023/03/04 12:09:42;;;;;;;32.88;15.88;;;29.40;99.90;;;;;;5055349;28;20028;-68
2023/03/04 12:12:29;;;;;;;43.55;18.13;;;29.30;99.90;;;;;;5055157;28;20024;-68
2023/03/04 12:15:21;;;;;;;22.05;11.98;;;29.30;99.90;;;;;;5055849;28;20428;-68
2023/03/04 12:18:15;;;;;;;23.50;11.65;;;29.30;99.90;;;;;;5055241;28;20032;-68
2023/03/04 12:21:03;;;;;;;20.02;10.45;;;29.30;99.90;;;;;;5054972;28;20052;-68
2023/03/04 12:23:40;;;;;;;17.10;9.98;;;29.30;99.90;;;;;;5052648;28;20482;-68
2023/03/04 12:26:07;;;;;;;23.13;11.05;;;29.30;99.90;;;;;;5053490;28;20406;-68
2023/03/04 12:28:54;;;;;;;18.95;10.50;;;29.30;99.90;;;;;;5052943;28;20021;-68
2023/03/04 12:31:33;;;;;;;22.20;10.32;;;29.20;99.90;;;;;;5052884;28;20043;-68
2023/03/04 12:34:28;;;;;;;16.35;8.57;;;29.20;99.90;;;;;;5052780;28;20032;-68
2023/03/04 12:36:56;;;;;;;13.80;7.60;;;29.10;99.90;;;;;;5052745;28;20120;-71
2023/03/04 12:39:36;;;;;;;17.45;8.02;;;29.10;99.90;;;;;;5052653;28;20540;-72